Airfield :
LOGIN :

Register | Disclaimer

   EN    FR    IT 

 










Legend :    VFR   Marginal VFR   IFR   Intensive IFR   Very Intensive IFR
Visi :
Ceiling :
>= 8 km
>= 3000ft
5 to 8 km
1000 to 3000 ft
1500m to 5 km
500 to 1000 ft
800 to 1500m
200 to 500 ft
< 800m
< 200 ft
Symbols :   Thunderstorms  Fog  Heavy snow  Heavy precipitations  Wind > 20 kt
SIGMETs :     Misc.  Thunderstorms  Icing  Turbulence  Mountain Waves  Volcanic Ashes






- Airport Elevation : 1234 ft
- IATA code : LUX


ELLX - Luxembourg Findel

CURRENT METAR :
  • 201050Z 01005KT 320V060 9999 FEW027 12/03 Q1017 TEMPO FEW025TCU

EXPIRED METARs :
  • 201020Z VRB05KT 9999 FEW025 12/05 Q1017 NOSIG
  • 200950Z VRB05KT 9999 FEW023 11/05 Q1017 NOSIG
  • 200920Z VRB04KT 9999 FEW024 11/05 Q1017 NOSIG
  • 200850Z 14005KT 090V180 9999 FEW020 10/04 Q1017 NOSIG

TAF TAF ELLX
Valid from the 20 at 06:00 until the 21 at 12:00 UTC


200500Z 2006/2112 04005KT 6000 SCT040
PROB30
TEMPO 2006/2007 3500 BR
BECMG 2007/2011 07010KT 9999 SCT035
PROB40
TEMPO 2012/2018 6000 SHRA SCT035TCU
ATIS : +352 4798 27300
Met : +352 4798 27010 / 27050



MET'MAP, your aeronautical weather chart ! - Copyright ORBIFLY December 2007 - Disclaimer

ORBIFLY MET'MAP TEAM :

Programming & Development : Alexandra Zaïnal
Concept & original design : Baudouin d'Aumeries
Assistance for programming : Marc-Olivier Méhu
Technical & hardware support : Manuel Goepfert

Contact : metmap@orbifly.com




SOURCES & CREDITS :

   NOAA